Time;durP1;ratioP1;P1;durP2;ratioP2;P2;SDS_P1;SDS_P2;PMS_P1;PMS_P2;Temp;Humidity;BMP_temperature;BMP_pressure;BME280_temperature;BME280_humidity;BME280_pressure;Samples;Min_cycle;Max_cycle;Signal;HPM_P1;HPM_P2
2022/09/28 00:02:12;;;;;;;3.15;1.58;;;;;;;;;;4956072;29;20051;-66
2022/09/28 00:04:39;;;;;;;2.60;1.20;;;;;;;;;;4957211;29;20527;-65
2022/09/28 00:07:05;;;;;;;2.30;1.00;;;;;;;;;;4957412;29;20083;-65
2022/09/28 00:09:32;;;;;;;1.40;1.15;;;;;;;;;;4956905;29;20471;-66
2022/09/28 00:11:59;;;;;;;2.42;1.02;;;;;;;;;;4957200;29;20514;-66
2022/09/28 00:14:26;;;;;;;2.42;1.30;;;;;;;;;;4957406;28;20055;-66
2022/09/28 00:16:53;;;;;;;0.93;0.82;;;;;;;;;;4957310;28;20403;-66
2022/09/28 00:19:19;;;;;;;2.33;1.08;;;;;;;;;;4956910;28;20194;-65
2022/09/28 00:21:46;;;;;;;2.35;1.30;;;;;;;;;;4957358;29;20078;-67
2022/09/28 00:24:14;;;;;;;1.45;0.80;;;;;;;;;;4957211;28;20055;-67
2022/09/28 00:26:44;;;;;;;2.28;1.10;;;;;;;;;;4957081;28;20106;-66
2022/09/28 00:29:33;;;;;;;1.58;1.00;;;;;;;;;;4962543;28;20506;-68
2022/09/28 00:32:02;;;;;;;1.77;1.13;;;;;;;;;;4976371;28;20399;-66
2022/09/28 00:34:34;;;;;;;3.10;1.10;;;;;;;;;;4976193;28;20090;-66
2022/09/28 00:37:03;;;;;;;1.57;1.07;;;;;;;;;;4976364;28;20058;-66
2022/09/28 00:39:34;;;;;;;1.92;1.05;;;;;;;;;;4967134;28;20130;-65
2022/09/28 00:42:02;;;;;;;1.02;0.82;;;;;;;;;;4956766;28;20098;-66
2022/09/28 00:44:41;;;;;;;1.40;0.60;;;;;;;;;;4956607;28;20055;-65
2022/09/28 00:47:33;;;;;;;4.18;0.85;;;;;;;;;;4956636;28;20462;-66
2022/09/28 00:50:09;;;;;;;1.50;0.93;;;;;;;;;;4956926;28;20055;-66
2022/09/28 00:53:08;;;;;;;3.03;1.02;;;;;;;;;;4955758;29;20114;-65
2022/09/28 00:55:34;;;;;;;3.60;0.90;;;;;;;;;;4944011;28;20505;-65
2022/09/28 00:58:02;;;;;;;4.82;1.10;;;;;;;;;;4956507;29;20047;-67
2022/09/28 01:00:29;;;;;;;0.88;0.77;;;;;;;;;;4955588;28;20086;-65
2022/09/28 01:02:55;;;;;;;3.47;0.90;;;;;;;;;;4955750;29;20047;-67
2022/09/28 01:05:23;;;;;;;1.40;0.93;;;;;;;;;;4939663;29;20043;-67
2022/09/28 01:07:49;;;;;;;3.15;1.17;;;;;;;;;;4955937;28;20138;-67
2022/09/28 01:10:16;;;;;;;3.40;1.40;;;;;;;;;;4956355;28;20118;-67
2022/09/28 01:12:42;;;;;;;1.98;0.95;;;;;;;;;;4955701;28;20051;-66
2022/09/28 01:15:09;;;;;;;1.80;1.13;;;;;;;;;;4956258;29;20062;-67
2022/09/28 01:17:56;;;;;;;2.30;1.00;;;;;;;;;;4939350;29;20095;-67
2022/09/28 01:20:46;;;;;;;2.10;1.10;;;;;;;;;;4947866;28;20091;-67
2022/09/28 01:23:53;;;;;;;3.00;0.90;;;;;;;;;;4960119;28;20059;-67
2022/09/28 01:26:29;;;;;;;2.50;0.80;;;;;;;;;;4936735;28;20469;-67
2022/09/28 01:29:05;;;;;;;1.42;0.98;;;;;;;;;;4972640;28;20050;-66
2022/09/28 01:31:32;;;;;;;3.88;0.98;;;;;;;;;;4954839;29;20051;-65
2022/09/28 01:34:11;;;;;;;0.85;0.82;;;;;;;;;;4954535;29;20090;-67
2022/09/28 01:36:45;;;;;;;3.28;1.38;;;;;;;;;;4954450;29;20102;-66
2022/09/28 01:39:14;;;;;;;2.92;0.90;;;;;;;;;;4954307;29;20547;-67
2022/09/28 01:41:41;;;;;;;4.25;1.33;;;;;;;;;;4938945;29;20052;-67
2022/09/28 01:44:09;;;;;;;2.97;1.25;;;;;;;;;;4955822;28;20059;-66
2022/09/28 01:46:43;;;;;;;3.88;1.55;;;;;;;;;;4957622;28;20047;-67
2022/09/28 01:49:34;;;;;;;1.55;1.15;;;;;;;;;;4956377;28;20058;-65
2022/09/28 01:52:20;;;;;;;2.13;1.02;;;;;;;;;;4954698;29;20408;-65
2022/09/28 01:54:53;;;;;;;2.47;0.77;;;;;;;;;;4955355;28;20454;-65
2022/09/28 01:57:24;;;;;;;1.17;0.77;;;;;;;;;;4970537;28;20117;-66
2022/09/28 02:00:00;;;;;;;3.33;1.00;;;;;;;;;;4957256;28;20054;-65
2022/09/28 02:02:40;;;;;;;5.40;0.90;;;;;;;;;;4973546;28;20074;-65
2022/09/28 02:05:07;;;;;;;2.08;1.10;;;;;;;;;;4961019;28;20107;-65
2022/09/28 02:07:38;;;;;;;6.22;1.27;;;;;;;;;;4963128;28;20553;-67
2022/09/28 02:10:18;;;;;;;3.97;1.15;;;;;;;;;;4957286;28;20055;-66
2022/09/28 02:12:50;;;;;;;5.30;1.20;;;;;;;;;;4957827;28;20046;-65
2022/09/28 02:15:42;;;;;;;4.32;1.08;;;;;;;;;;4973406;28;20046;-66
2022/09/28 02:18:08;;;;;;;4.13;0.95;;;;;;;;;;4957202;28;20772;-65
2022/09/28 02:20:35;;;;;;;2.05;0.80;;;;;;;;;;4974075;28;20105;-66
2022/09/28 02:23:02;;;;;;;4.53;1.15;;;;;;;;;;4972746;28;20074;-65
2022/09/28 02:25:46;;;;;;;3.97;1.23;;;;;;;;;;4972571;28;20459;-66
2022/09/28 02:28:13;;;;;;;3.60;0.95;;;;;;;;;;4974003;28;20047;-65
2022/09/28 02:30:40;;;;;;;5.18;1.50;;;;;;;;;;4972303;28;20108;-66
2022/09/28 02:33:44;;;;;;;4.05;1.10;;;;;;;;;;4957013;28;20055;-66
2022/09/28 02:36:11;;;;;;;2.65;0.90;;;;;;;;;;4960758;28;20086;-65
2022/09/28 02:38:37;;;;;;;5.60;1.30;;;;;;;;;;4972479;28;20508;-67
2022/09/28 02:41:26;;;;;;;5.90;1.27;;;;;;;;;;4956028;28;20101;-66
2022/09/28 02:44:13;;;;;;;3.28;1.10;;;;;;;;;;4972700;28;20054;-65
2022/09/28 02:46:49;;;;;;;3.03;1.55;;;;;;;;;;4974031;28;20464;-66
2022/09/28 02:49:28;;;;;;;3.47;1.30;;;;;;;;;;4973450;28;20101;-68
2022/09/28 02:52:01;;;;;;;9.15;1.70;;;;;;;;;;4972485;28;20458;-66
2022/09/28 02:54:46;;;;;;;5.20;2.00;;;;;;;;;;4969625;28;20047;-65
2022/09/28 02:57:31;;;;;;;4.28;1.48;;;;;;;;;;4954770;29;20102;-66
2022/09/28 03:00:07;;;;;;;4.93;1.30;;;;;;;;;;4954085;28;20047;-66
2022/09/28 03:02:52;;;;;;;4.68;1.10;;;;;;;;;;4953261;29;20765;-65
2022/09/28 03:06:02;;;;;;;6.72;1.27;;;;;;;;;;4954393;29;20114;-65
2022/09/28 03:08:39;;;;;;;7.85;1.63;;;;;;;;;;4952768;29;20051;-65
2022/09/28 03:11:08;;;;;;;4.00;1.02;;;;;;;;;;4953153;29;20053;-66
2022/09/28 03:13:35;;;;;;;5.50;1.30;;;;;;;;;;4937111;29;20495;-65
2022/09/28 03:16:07;;;;;;;6.78;1.45;;;;;;;;;;4954060;28;20481;-65
2022/09/28 03:18:34;;;;;;;5.60;1.20;;;;;;;;;;4953157;29;20054;-66
2022/09/28 03:21:01;;;;;;;3.88;1.10;;;;;;;;;;4952598;29;20462;-66
2022/09/28 03:23:28;;;;;;;2.70;0.98;;;;;;;;;;4969017;28;20395;-66
2022/09/28 03:25:54;;;;;;;3.90;0.90;;;;;;;;;;4973038;28;20196;-66
2022/09/28 03:28:22;;;;;;;4.38;1.15;;;;;;;;;;4972879;28;20398;-67
2022/09/28 03:30:49;;;;;;;6.28;1.10;;;;;;;;;;4973262;28;20050;-66
2022/09/28 03:33:15;;;;;;;4.30;0.98;;;;;;;;;;4973212;28;20102;-66
2022/09/28 03:35:45;;;;;;;4.22;1.33;;;;;;;;;;4972334;28;20101;-67
2022/09/28 03:38:12;;;;;;;3.97;1.13;;;;;;;;;;4973378;28;20109;-65
2022/09/28 03:40:39;;;;;;;4.28;1.20;;;;;;;;;;4973727;28;20050;-65
2022/09/28 03:43:05;;;;;;;2.95;1.20;;;;;;;;;;4971687;28;20081;-66
2022/09/28 03:45:32;;;;;;;2.92;1.30;;;;;;;;;;4972792;28;20054;-65
2022/09/28 03:47:59;;;;;;;3.47;0.90;;;;;;;;;;4972756;28;20046;-66
2022/09/28 03:50:25;;;;;;;14.48;2.10;;;;;;;;;;4973044;28;20494;-64
2022/09/28 03:52:52;;;;;;;7.00;1.05;;;;;;;;;;4973398;28;20055;-66
2022/09/28 03:55:18;;;;;;;2.08;0.90;;;;;;;;;;4972852;28;20470;-66
2022/09/28 03:57:52;;;;;;;3.95;0.85;;;;;;;;;;4973139;28;20055;-66
2022/09/28 04:00:19;;;;;;;2.63;0.50;;;;;;;;;;4972811;28;20098;-66
2022/09/28 04:02:46;;;;;;;1.95;0.60;;;;;;;;;;4972591;28;20051;-66
2022/09/28 04:05:12;;;;;;;4.93;0.65;;;;;;;;;;4956174;28;20468;-66
2022/09/28 04:07:39;;;;;;;0.98;0.50;;;;;;;;;;4953371;29;20534;-66
2022/09/28 04:10:06;;;;;;;3.85;0.80;;;;;;;;;;4953450;28;20180;-66
2022/09/28 04:12:32;;;;;;;2.03;0.60;;;;;;;;;;4953556;29;20136;-66
2022/09/28 04:14:59;;;;;;;2.60;0.63;;;;;;;;;;4953425;29;20055;-66
2022/09/28 04:17:26;;;;;;;2.25;0.73;;;;;;;;;;4953628;28;20498;-66
2022/09/28 04:19:52;;;;;;;2.53;0.63;;;;;;;;;;4953504;28;20102;-67
2022/09/28 04:22:19;;;;;;;2.65;0.85;;;;;;;;;;4953448;28;20526;-67
2022/09/28 04:24:45;;;;;;;1.27;0.65;;;;;;;;;;4953453;28;20092;-66
2022/09/28 04:29:57;;;;;;;3.47;0.95;;;;;;;;;;4953031;29;20103;-67
2022/09/28 04:32:24;;;;;;;2.20;0.77;;;;;;;;;;4953210;29;20078;-67
2022/09/28 04:34:50;;;;;;;3.67;1.23;;;;;;;;;;4953038;29;20106;-66
2022/09/28 04:37:17;;;;;;;3.78;1.00;;;;;;;;;;4953343;29;20044;-67
2022/09/28 04:39:44;;;;;;;1.20;0.70;;;;;;;;;;4953019;28;20055;-68
2022/09/28 04:42:14;;;;;;;5.18;0.93;;;;;;;;;;4953113;29;20051;-67
2022/09/28 04:44:41;;;;;;;1.92;0.80;;;;;;;;;;4953072;28;20059;-67
2022/09/28 04:47:08;;;;;;;2.38;1.15;;;;;;;;;;4953919;28;20043;-66
2022/09/28 04:49:35;;;;;;;4.47;1.40;;;;;;;;;;4956440;29;20474;-66
2022/09/28 04:52:03;;;;;;;3.15;1.10;;;;;;;;;;4956629;28;20055;-68
2022/09/28 04:54:29;;;;;;;4.15;1.13;;;;;;;;;;4956471;28;20055;-68
2022/09/28 04:56:56;;;;;;;3.40;1.23;;;;;;;;;;4956542;28;20450;-66
2022/09/28 04:59:23;;;;;;;4.38;1.30;;;;;;;;;;4964756;28;20465;-67
2022/09/28 05:01:50;;;;;;;4.40;1.30;;;;;;;;;;4975535;28;20081;-67
2022/09/28 05:04:16;;;;;;;2.75;1.08;;;;;;;;;;4975722;28;20099;-66
2022/09/28 05:06:49;;;;;;;1.80;0.90;;;;;;;;;;4975765;28;20053;-67
2022/09/28 05:09:15;;;;;;;1.17;0.55;;;;;;;;;;4975412;28;20110;-67
2022/09/28 05:11:42;;;;;;;4.10;0.90;;;;;;;;;;4975485;28;20050;-67
2022/09/28 05:14:10;;;;;;;4.75;1.05;;;;;;;;;;4975420;28;20055;-66
2022/09/28 05:16:36;;;;;;;5.65;1.58;;;;;;;;;;4975284;28;20560;-66
2022/09/28 05:19:05;;;;;;;3.85;0.90;;;;;;;;;;4975597;28;20138;-67
2022/09/28 05:21:32;;;;;;;4.50;0.80;;;;;;;;;;4976526;28;20057;-67
2022/09/28 05:23:59;;;;;;;2.80;0.90;;;;;;;;;;4975341;28;20561;-65
2022/09/28 05:26:25;;;;;;;6.53;1.42;;;;;;;;;;4967053;28;20050;-66
2022/09/28 05:28:52;;;;;;;5.90;1.25;;;;;;;;;;4966135;28;20047;-66
2022/09/28 05:31:19;;;;;;;4.97;0.90;;;;;;;;;;4975327;28;20085;-65
2022/09/28 05:33:46;;;;;;;5.13;1.17;;;;;;;;;;4975031;28;20050;-65
2022/09/28 05:36:12;;;;;;;3.50;1.05;;;;;;;;;;4975031;28;20548;-66
2022/09/28 05:38:39;;;;;;;3.92;0.93;;;;;;;;;;4974717;28;20266;-65
2022/09/28 05:41:05;;;;;;;1.88;0.90;;;;;;;;;;4975630;28;20055;-65
2022/09/28 05:43:32;;;;;;;3.58;0.90;;;;;;;;;;4975254;28;20077;-65
2022/09/28 05:45:59;;;;;;;5.13;1.50;;;;;;;;;;4975180;28;20102;-66
2022/09/28 05:48:27;;;;;;;5.32;1.30;;;;;;;;;;4967476;28;20059;-64
2022/09/28 05:50:54;;;;;;;6.72;2.63;;;;;;;;;;4962393;29;20054;-66
2022/09/28 05:53:20;;;;;;;3.33;1.38;;;;;;;;;;4979465;28;20202;-65
2022/09/28 05:55:47;;;;;;;3.58;1.23;;;;;;;;;;4978155;28;20047;-66
2022/09/28 05:58:14;;;;;;;4.97;1.10;;;;;;;;;;4981728;28;20026;-67
2022/09/28 06:00:40;;;;;;;5.15;0.70;;;;;;;;;;4995082;28;20042;-67
2022/09/28 06:03:10;;;;;;;1.75;0.82;;;;;;;;;;4998640;28;20070;-67
2022/09/28 06:05:38;;;;;;;4.30;0.98;;;;;;;;;;4997677;28;20090;-67
2022/09/28 06:08:07;;;;;;;6.40;1.10;;;;;;;;;;4998979;28;20062;-66
2022/09/28 06:10:34;;;;;;;3.95;1.20;;;;;;;;;;4998539;28;20038;-66
2022/09/28 06:13:00;;;;;;;2.80;0.90;;;;;;;;;;4998683;28;20051;-67
2022/09/28 06:15:29;;;;;;;5.40;1.30;;;;;;;;;;4998521;28;20066;-66
2022/09/28 06:18:01;;;;;;;5.10;1.23;;;;;;;;;;4985888;28;20035;-66
2022/09/28 06:20:30;;;;;;;5.20;1.27;;;;;;;;;;4993367;28;20046;-67
2022/09/28 06:22:56;;;;;;;3.47;1.52;;;;;;;;;;4990778;28;20034;-66
2022/09/28 06:25:26;;;;;;;4.43;1.50;;;;;;;;;;4992287;28;20058;-66
2022/09/28 06:27:54;;;;;;;3.75;2.10;;;;;;;;;;4975436;28;20059;-67
2022/09/28 06:30:21;;;;;;;5.43;2.33;;;;;;;;;;4975848;28;20083;-66
2022/09/28 06:32:51;;;;;;;6.63;3.20;;;;;;;;;;4977393;29;20070;-66
2022/09/28 06:35:18;;;;;;;6.50;3.58;;;;;;;;;;4965249;28;20078;-64
2022/09/28 06:37:45;;;;;;;9.30;3.53;;;;;;;;;;4944093;28;20046;-63
2022/09/28 06:40:12;;;;;;;13.55;3.25;;;;;;;;;;4957791;28;20047;-65
2022/09/28 06:42:39;;;;;;;7.18;2.55;;;;;;;;;;4958871;28;20061;-64
2022/09/28 06:45:06;;;;;;;7.53;3.03;;;;;;;;;;4956221;29;20078;-65
2022/09/28 06:47:34;;;;;;;4.65;2.35;;;;;;;;;;4957964;29;20506;-64
2022/09/28 06:50:00;;;;;;;5.53;2.20;;;;;;;;;;4953509;28;20118;-64
2022/09/28 06:52:27;;;;;;;5.45;1.90;;;;;;;;;;4956815;28;20106;-65
2022/09/28 06:54:53;;;;;;;5.97;2.05;;;;;;;;;;4957431;29;20109;-64
2022/09/28 06:57:20;;;;;;;6.43;2.42;;;;;;;;;;4967966;29;20047;-64
2022/09/28 06:59:47;;;;;;;4.70;1.98;;;;;;;;;;4972255;29;20047;-65
2022/09/28 07:02:13;;;;;;;5.35;2.42;;;;;;;;;;4957670;29;20132;-64
2022/09/28 07:04:43;;;;;;;5.93;2.97;;;;;;;;;;4960596;29;20566;-65
2022/09/28 07:07:10;;;;;;;6.47;3.00;;;;;;;;;;4970784;28;20581;-65
2022/09/28 07:09:37;;;;;;;8.02;2.65;;;;;;;;;;4985292;28;20106;-64
2022/09/28 07:12:12;;;;;;;5.55;3.80;;;;;;;;;;4971189;28;20054;-64
2022/09/28 07:14:38;;;;;;;8.27;3.97;;;;;;;;;;4971350;28;20430;-65
2022/09/28 07:17:13;;;;;;;11.23;3.58;;;;;;;;;;4971593;28;20129;-64
2022/09/28 07:19:40;;;;;;;7.47;3.60;;;;;;;;;;4962320;28;20114;-65
2022/09/28 07:22:07;;;;;;;7.55;2.65;;;;;;;;;;4952095;28;20102;-64
2022/09/28 07:24:34;;;;;;;4.93;2.50;;;;;;;;;;4951535;29;20055;-65
2022/09/28 07:27:04;;;;;;;5.32;2.50;;;;;;;;;;4951927;29;20547;-64
2022/09/28 07:29:31;;;;;;;3.05;2.10;;;;;;;;;;4951839;28;20082;-64
2022/09/28 07:31:58;;;;;;;8.60;4.00;;;;;;;;;;4952343;28;20055;-64
2022/09/28 07:34:25;;;;;;;6.35;2.20;;;;;;;;;;4968861;28;20050;-64
2022/09/28 07:36:56;;;;;;;4.78;1.98;;;;;;;;;;4970918;28;20047;-64
2022/09/28 07:39:23;;;;;;;3.17;2.22;;;;;;;;;;4971079;28;20050;-64
2022/09/28 07:41:49;;;;;;;4.93;2.53;;;;;;;;;;4971415;28;20047;-64
2022/09/28 07:44:17;;;;;;;4.18;2.05;;;;;;;;;;4971117;28;20054;-63
2022/09/28 07:46:45;;;;;;;7.35;2.28;;;;;;;;;;4970298;28;20539;-64
2022/09/28 07:49:14;;;;;;;6.03;2.60;;;;;;;;;;4958593;28;20479;-64
2022/09/28 07:51:43;;;;;;;5.63;2.95;;;;;;;;;;4950374;29;20146;-64
2022/09/28 07:54:10;;;;;;;7.72;2.70;;;;;;;;;;4951396;29;20111;-64
2022/09/28 07:56:36;;;;;;;6.13;2.33;;;;;;;;;;4944704;28;20510;-68
2022/09/28 07:59:03;;;;;;;5.72;2.70;;;;;;;;;;4963182;28;20046;-68
2022/09/28 08:01:30;;;;;;;12.00;3.60;;;;;;;;;;4959232;28;20055;-66
2022/09/28 08:03:56;;;;;;;5.30;2.80;;;;;;;;;;4960946;28;20047;-64
2022/09/28 08:06:23;;;;;;;7.82;4.25;;;;;;;;;;4958416;28;20109;-64
2022/09/28 08:08:51;;;;;;;10.35;3.80;;;;;;;;;;4956520;28;20552;-66
2022/09/28 08:11:18;;;;;;;6.03;2.83;;;;;;;;;;4958508;28;20094;-64
2022/09/28 08:13:45;;;;;;;4.20;2.60;;;;;;;;;;4960256;28;20097;-64
2022/09/28 08:16:12;;;;;;;8.27;3.83;;;;;;;;;;4957935;28;20055;-64
2022/09/28 08:18:39;;;;;;;7.28;3.47;;;;;;;;;;4961667;28;20565;-64
2022/09/28 08:23:51;;;;;;;4.78;2.95;;;;;;;;;;4961932;28;20051;-65
2022/09/28 08:26:18;;;;;;;7.28;3.38;;;;;;;;;;4963958;28;20047;-66
2022/09/28 08:28:46;;;;;;;5.10;3.50;;;;;;;;;;4962270;28;20470;-67
2022/09/28 08:31:13;;;;;;;5.30;3.25;;;;;;;;;;4961777;28;20063;-66
2022/09/28 08:33:40;;;;;;;7.25;3.45;;;;;;;;;;4963438;28;20521;-67
2022/09/28 08:36:08;;;;;;;6.78;2.70;;;;;;;;;;4962356;28;20105;-66
2022/09/28 08:38:34;;;;;;;5.82;2.80;;;;;;;;;;4961399;28;20628;-66
2022/09/28 08:41:19;;;;;;;5.30;2.33;;;;;;;;;;4965380;28;20055;-66
2022/09/28 08:44:01;;;;;;;6.10;2.45;;;;;;;;;;4952388;28;20109;-65
2022/09/28 08:46:34;;;;;;;8.48;3.08;;;;;;;;;;4954871;28;20465;-75
2022/09/28 08:49:08;;;;;;;;;;;;;;;;;;4969801;28;20066;-71
2022/09/28 08:52:05;;;;;;;7.10;2.70;;;;;;;;;;4962987;28;19926;-75
2022/09/28 08:54:55;;;;;;;4.82;2.88;;;;;;;;;;4939268;28;20102;-72
2022/09/28 08:57:48;;;;;;;6.78;3.63;;;;;;;;;;4964179;28;20426;-72
2022/09/28 09:00:29;;;;;;;6.13;2.47;;;;;;;;;;4963466;28;20082;-71
2022/09/28 09:02:55;;;;;;;5.28;1.80;;;;;;;;;;4945969;28;20184;-73
2022/09/28 09:05:26;;;;;;;5.75;1.83;;;;;;;;;;4954159;28;20454;-73
2022/09/28 09:07:59;;;;;;;5.22;1.80;;;;;;;;;;4946591;28;20089;-71
2022/09/28 09:10:44;;;;;;;4.88;2.40;;;;;;;;;;4966979;28;20059;-72
2022/09/28 09:13:32;;;;;;;5.32;1.80;;;;;;;;;;4962522;28;20475;-66
2022/09/28 09:16:11;;;;;;;6.82;2.97;;;;;;;;;;4959842;28;20458;-67
2022/09/28 09:18:47;;;;;;;5.28;2.33;;;;;;;;;;4962952;28;20047;-71
2022/09/28 09:21:42;;;;;;;8.18;2.72;;;;;;;;;;4949790;28;20043;-66
2022/09/28 09:24:12;;;;;;;3.22;2.08;;;;;;;;;;4961571;28;20047;-66
2022/09/28 09:26:39;;;;;;;6.88;2.10;;;;;;;;;;4962513;28;20576;-67
2022/09/28 09:29:16;;;;;;;2.58;1.67;;;;;;;;;;4958964;28;20046;-66
2022/09/28 09:31:49;;;;;;;4.22;1.95;;;;;;;;;;4944994;28;20082;-66
2022/09/28 09:34:36;;;;;;;4.47;1.55;;;;;;;;;;4960528;28;20702;-69
2022/09/28 09:37:23;;;;;;;3.80;1.70;;;;;;;;;;4951949;28;20097;-70
2022/09/28 09:39:56;;;;;;;5.47;1.95;;;;;;;;;;4947816;28;20043;-68
2022/09/28 09:42:34;;;;;;;3.67;1.48;;;;;;;;;;4961293;28;20098;-69
2022/09/28 09:45:27;;;;;;;1.90;1.45;;;;;;;;;;4962978;28;20133;-71
2022/09/28 09:48:02;;;;;;;2.63;1.25;;;;;;;;;;4963991;28;20046;-68
2022/09/28 09:50:32;;;;;;;3.17;1.40;;;;;;;;;;4935092;29;20134;-69
2022/09/28 09:53:32;;;;;;;3.05;1.70;;;;;;;;;;4960062;28;20055;-68
2022/09/28 09:56:14;;;;;;;2.40;1.65;;;;;;;;;;4950011;28;20051;-67
2022/09/28 09:58:50;;;;;;;5.28;1.73;;;;;;;;;;4945926;28;20051;-67
2022/09/28 10:01:19;;;;;;;3.30;1.70;;;;;;;;;;4963156;28;20502;-68
2022/09/28 10:03:47;;;;;;;2.50;1.45;;;;;;;;;;4963193;28;20086;-67
2022/09/28 10:06:19;;;;;;;3.42;1.40;;;;;;;;;;4961797;28;20441;-67
2022/09/28 10:08:57;;;;;;;3.70;1.70;;;;;;;;;;4960615;28;20042;-66
2022/09/28 10:11:30;;;;;;;4.90;1.52;;;;;;;;;;4944635;28;20561;-66
2022/09/28 10:13:57;;;;;;;;;;;;;;;;;;4946127;28;20043;-66
2022/09/28 10:16:23;;;;;;;3.53;1.60;;;;;;;;;;4959324;28;20381;-66
2022/09/28 10:18:50;;;;;;;4.57;1.85;;;;;;;;;;4959496;28;20040;-66
2022/09/28 10:21:19;;;;;;;5.35;1.60;;;;;;;;;;4961723;28;20047;-66
2022/09/28 10:23:46;;;;;;;4.30;1.40;;;;;;;;;;4959990;28;20083;-67
2022/09/28 10:26:27;;;;;;;2.65;1.60;;;;;;;;;;4959164;28;20078;-66
2022/09/28 10:29:02;;;;;;;5.22;2.58;;;;;;;;;;4943012;28;20410;-67
2022/09/28 10:31:36;;;;;;;2.55;1.58;;;;;;;;;;4957932;28;20055;-66
2022/09/28 10:34:04;;;;;;;7.18;2.00;;;;;;;;;;4960747;28;20055;-66
2022/09/28 10:36:37;;;;;;;6.72;1.83;;;;;;;;;;4958472;28;20051;-66
2022/09/28 10:39:04;;;;;;;7.63;2.03;;;;;;;;;;4959102;28;20048;-67
2022/09/28 10:41:31;;;;;;;3.30;2.25;;;;;;;;;;4944755;28;20340;-66
2022/09/28 10:44:07;;;;;;;6.53;2.70;;;;;;;;;;4942646;28;20494;-66
2022/09/28 10:46:34;;;;;;;5.78;2.15;;;;;;;;;;4960258;28;20244;-66
2022/09/28 10:49:06;;;;;;;3.88;2.08;;;;;;;;;;4957238;28;20047;-67
2022/09/28 10:51:42;;;;;;;3.72;1.50;;;;;;;;;;4965236;28;20421;-66
2022/09/28 10:54:20;;;;;;;1.73;1.20;;;;;;;;;;4964874;28;20086;-66
2022/09/28 10:56:48;;;;;;;5.32;1.30;;;;;;;;;;4957577;28;20118;-66
2022/09/28 10:59:29;;;;;;;4.18;1.65;;;;;;;;;;4959932;28;20055;-66
2022/09/28 11:02:11;;;;;;;7.55;3.78;;;;;;;;;;4959385;28;20132;-66
2022/09/28 11:04:40;;;;;;;8.40;3.72;;;;;;;;;;4960780;28;20057;-67
2022/09/28 11:07:23;;;;;;;8.77;4.75;;;;;;;;;;4958342;28;20059;-70
2022/09/28 11:09:50;;;;;;;6.00;2.53;;;;;;;;;;4945145;28;20042;-69
2022/09/28 11:12:25;;;;;;;6.25;2.72;;;;;;;;;;4961996;28;20050;-71
2022/09/28 11:14:59;;;;;;;4.05;1.92;;;;;;;;;;4942122;28;20050;-71
2022/09/28 11:17:30;;;;;;;4.47;1.65;;;;;;;;;;4951486;28;20051;-72
2022/09/28 11:20:18;;;;;;;6.80;1.85;;;;;;;;;;4958835;28;20054;-73
2022/09/28 11:23:14;;;;;;;3.03;1.30;;;;;;;;;;4962410;28;20059;-69
2022/09/28 11:25:41;;;;;;;1.77;1.20;;;;;;;;;;4956267;23;20103;-70
2022/09/28 11:28:17;;;;;;;7.82;2.33;;;;;;;;;;4943307;29;20487;-73
2022/09/28 11:30:47;;;;;;;1.63;1.25;;;;;;;;;;4923678;29;20063;-72
2022/09/28 11:33:24;;;;;;;2.38;1.25;;;;;;;;;;4928051;29;20078;-71
2022/09/28 11:36:11;;;;;;;3.80;1.50;;;;;;;;;;4920213;29;20582;-70
2022/09/28 11:39:07;;;;;;;4.68;1.98;;;;;;;;;;4924870;29;20411;-70
2022/09/28 11:41:43;;;;;;;4.78;1.70;;;;;;;;;;4930711;29;20055;-69
2022/09/28 11:44:37;;;;;;;6.18;2.38;;;;;;;;;;4919025;29;20056;-69
2022/09/28 11:47:29;;;;;;;3.85;1.13;;;;;;;;;;4920819;29;20056;-67
2022/09/28 11:50:43;;;;;;;4.82;1.33;;;;;;;;;;4925318;29;20107;-67
2022/09/28 11:53:10;;;;;;;6.00;1.90;;;;;;;;;;4922528;29;20055;-66
2022/09/28 11:55:57;;;;;;;5.30;1.73;;;;;;;;;;4925479;29;20273;-66
2022/09/28 11:58:32;;;;;;;5.60;1.70;;;;;;;;;;4924369;29;20095;-65
2022/09/28 12:01:17;;;;;;;1.38;0.80;;;;;;;;;;4928358;29;20051;-66
2022/09/28 12:03:49;;;;;;;3.03;1.08;;;;;;;;;;4926167;29;20447;-66
2022/09/28 12:06:23;;;;;;;4.18;0.80;;;;;;;;;;4907349;29;20056;-65
2022/09/28 12:08:53;;;;;;;2.67;1.25;;;;;;;;;;4943063;29;20044;-65
2022/09/28 12:11:23;;;;;;;6.07;1.75;;;;;;;;;;4912049;29;20076;-65
2022/09/28 12:13:51;;;;;;;3.22;1.10;;;;;;;;;;4924460;29;20044;-65
2022/09/28 12:16:25;;;;;;;2.67;1.08;;;;;;;;;;4911097;29;20392;-66
2022/09/28 12:19:19;;;;;;;4.72;1.13;;;;;;;;;;4924838;29;20071;-66
2022/09/28 12:21:51;;;;;;;4.63;1.75;;;;;;;;;;4924319;29;20056;-65
2022/09/28 12:24:19;;;;;;;4.38;1.58;;;;;;;;;;4911997;29;20511;-66
2022/09/28 12:27:10;;;;;;;4.28;1.48;;;;;;;;;;4922862;29;20154;-65
2022/09/28 12:30:00;;;;;;;3.75;1.17;;;;;;;;;;4923868;29;20443;-66
2022/09/28 12:32:37;;;;;;;4.03;1.38;;;;;;;;;;4938857;28;20052;-66
2022/09/28 12:35:48;;;;;;;2.42;0.90;;;;;;;;;;4925390;29;20104;-66
2022/09/28 12:38:20;;;;;;;5.72;1.60;;;;;;;;;;4924159;29;20052;-66
2022/09/28 12:40:50;;;;;;;3.63;1.67;;;;;;;;;;4925174;29;20056;-67
2022/09/28 12:43:27;;;;;;;4.65;1.50;;;;;;;;;;4925838;29;20052;-66
2022/09/28 12:46:01;;;;;;;5.47;1.65;;;;;;;;;;4923377;29;20056;-66
2022/09/28 12:49:05;;;;;;;4.80;1.50;;;;;;;;;;4907905;29;20447;-66
2022/09/28 12:51:53;;;;;;;4.03;1.63;;;;;;;;;;4924579;29;20052;-66
2022/09/28 12:54:45;;;;;;;3.00;1.00;;;;;;;;;;4928660;29;20114;-65
2022/09/28 12:57:33;;;;;;;3.80;1.58;;;;;;;;;;4923396;29;20059;-70
2022/09/28 13:00:11;;;;;;;4.95;1.58;;;;;;;;;;4930107;29;20048;-71
2022/09/28 13:03:04;;;;;;;4.28;1.30;;;;;;;;;;4923279;29;20047;-74
2022/09/28 13:05:39;;;;;;;2.13;0.88;;;;;;;;;;4928386;29;20115;-73
2022/09/28 13:08:18;;;;;;;3.35;1.10;;;;;;;;;;4922963;29;20052;-70
2022/09/28 13:11:00;;;;;;;2.00;1.10;;;;;;;;;;4924003;29;20047;-70
2022/09/28 13:13:39;;;;;;;1.77;0.80;;;;;;;;;;4927625;29;20103;-71
2022/09/28 13:16:20;;;;;;;5.72;1.40;;;;;;;;;;4926186;29;20102;-70
2022/09/28 13:19:25;;;;;;;2.13;0.70;;;;;;;;;;4937804;29;20101;-71
2022/09/28 13:21:58;;;;;;;2.17;0.98;;;;;;;;;;4924182;29;20091;-69
2022/09/28 13:24:28;;;;;;;3.15;0.90;;;;;;;;;;4937165;29;20111;-69
2022/09/28 13:27:05;;;;;;;3.95;0.90;;;;;;;;;;4924958;29;20175;-69
2022/09/28 13:29:33;;;;;;;2.28;0.82;;;;;;;;;;4938299;29;20086;-73
2022/09/28 13:32:04;;;;;;;4.28;1.20;;;;;;;;;;4910496;29;20056;-73
2022/09/28 13:34:32;;;;;;;4.30;1.20;;;;;;;;;;4922206;29;20112;-73
2022/09/28 13:37:24;;;;;;;5.88;1.23;;;;;;;;;;4921403;29;20468;-73
2022/09/28 13:39:58;;;;;;;1.42;0.77;;;;;;;;;;4921262;29;20472;-71
2022/09/28 13:42:33;;;;;;;2.20;0.73;;;;;;;;;;4922437;29;20388;-70
2022/09/28 13:45:21;;;;;;;1.02;0.50;;;;;;;;;;4924322;29;20484;-69
2022/09/28 13:47:51;;;;;;;2.13;0.60;;;;;;;;;;4921947;29;20407;-68
2022/09/28 13:50:45;;;;;;;3.80;0.85;;;;;;;;;;4923204;29;20044;-70
2022/09/28 13:53:33;;;;;;;1.75;0.90;;;;;;;;;;4924790;29;20048;-70
2022/09/28 13:56:19;;;;;;;4.35;1.30;;;;;;;;;;4926907;29;20146;-70
2022/09/28 13:59:20;;;;;;;3.90;0.85;;;;;;;;;;4926184;29;20098;-69
2022/09/28 14:02:17;;;;;;;5.70;1.50;;;;;;;;;;4910013;29;20052;-70
2022/09/28 14:05:21;;;;;;;3.25;1.52;;;;;;;;;;4926081;29;20418;-69
2022/09/28 14:08:07;;;;;;;1.92;0.77;;;;;;;;;;4939778;29;20052;-72
2022/09/28 14:10:53;;;;;;;3.92;1.55;;;;;;;;;;4923767;29;20119;-67
2022/09/28 14:13:41;;;;;;;2.40;0.98;;;;;;;;;;4926849;29;20439;-69
2022/09/28 14:16:32;;;;;;;2.72;0.95;;;;;;;;;;4927325;29;20048;-67
2022/09/28 14:19:11;;;;;;;1.52;0.55;;;;;;;;;;4922593;29;20468;-67
2022/09/28 14:22:03;;;;;;;1.25;0.75;;;;;;;;;;4940124;29;20060;-68
2022/09/28 14:24:32;;;;;;;3.00;0.70;;;;;;;;;;4920925;29;20346;-66
2022/09/28 14:27:37;;;;;;;2.03;1.10;;;;;;;;;;4925748;29;20099;-68
2022/09/28 14:30:11;;;;;;;1.02;0.55;;;;;;;;;;4901174;29;20078;-66
2022/09/28 14:32:47;;;;;;;2.97;1.30;;;;;;;;;;4924209;29;20099;-67
2022/09/28 14:35:23;;;;;;;3.15;1.02;;;;;;;;;;4924068;29;20059;-67
2022/09/28 14:41:10;;;;;;;3.58;1.60;;;;;;;;;;4923320;29;20115;-68
2022/09/28 14:43:43;;;;;;;2.13;0.93;;;;;;;;;;4939771;29;20499;-68
2022/09/28 14:46:11;;;;;;;2.63;0.80;;;;;;;;;;4924827;29;20115;-68
2022/09/28 14:48:46;;;;;;;1.75;0.80;;;;;;;;;;4920184;29;20055;-66
2022/09/28 14:51:25;;;;;;;1.23;1.10;;;;;;;;;;4923953;29;20570;-67
2022/09/28 14:53:53;;;;;;;5.07;1.48;;;;;;;;;;4928991;29;20117;-66
2022/09/28 14:56:20;;;;;;;1.55;0.88;;;;;;;;;;4905363;29;20568;-69
2022/09/28 14:58:52;;;;;;;1.30;0.80;;;;;;;;;;4920163;29;20460;-70
2022/09/28 15:01:20;;;;;;;4.70;1.38;;;;;;;;;;4935171;29;20076;-70
2022/09/28 15:03:49;;;;;;;2.88;1.20;;;;;;;;;;4953165;23;20042;-70
2022/09/28 15:06:19;;;;;;;1.23;0.90;;;;;;;;;;4973310;28;20566;-68
2022/09/28 15:08:46;;;;;;;1.55;0.80;;;;;;;;;;4941557;29;20058;-72
2022/09/28 15:11:17;;;;;;;1.50;0.68;;;;;;;;;;4939904;29;20047;-70
2022/09/28 15:13:43;;;;;;;1.65;0.80;;;;;;;;;;4922702;29;20098;-68
2022/09/28 15:16:12;;;;;;;2.25;1.42;;;;;;;;;;4938179;29;20052;-75
2022/09/28 15:19:02;;;;;;;4.05;2.10;;;;;;;;;;4936500;29;20203;-74
2022/09/28 15:21:36;;;;;;;1.70;1.02;;;;;;;;;;4941733;29;20051;-73
2022/09/28 15:24:43;;;;;;;3.15;1.52;;;;;;;;;;4940973;29;20059;-71
2022/09/28 15:27:14;;;;;;;2.83;1.13;;;;;;;;;;4948129;28;20106;-73
2022/09/28 15:29:53;;;;;;;5.43;1.00;;;;;;;;;;4944576;28;20047;-72
2022/09/28 15:32:27;;;;;;;1.70;0.80;;;;;;;;;;4938057;29;20052;-71